Robersonville, North Carolina
Current Conditions -  °F | °C
As of 6:50 PM on Wednesday 22 Oct 2014 (Local Time) from KPGV Reporting Station
Scattered Clouds Scattered Clouds  
Wind Chill: 57°   Ceiling: Unl
Heat Index: 57°   Visibility: 10mi
Dew Point: 50°   Wind: 3mph
Humidity: 77%   Direction: 340°NNW
Pressure: 29.96"   Gusts: NA
Location:  35.83°N, 77.25°W
Report Text: KPGV 222250Z AUTO 34003KT 10SM SCT047 SCT070 14/10 A2996 RMK AO2
Loading
Personal Weather Stations






























Interactive Weather Map
Tropical Storm Tracking
New forecast layout! Learn more

10-Day Weather Forecast

Advertisements
Track Severe Weather on mobile